Terminal Aerodrome Forecast
Issued by NWS Wilmington, NC

Home | Current Version | Previous Version | Text Only | Print | Product List | Glossary On
Versions: 1 2 3 4 5 6 7 8 9 10 11 12 13 14 15 16 17 18 19 20 21 22 23 24 25 26
000
FTUS42 KILM 281122
TAFFLO
TAF
KFLO 281122Z 2812/2912 34007KT P6SM BKN070 OVC090
     FM281330 33010G19KT P6SM SCT030 SCT070 SCT150
     FM290000 36005KT P6SM FEW150=

USA.gov is the U.S. government's official web portal to all federal, state and local government web resources and services.